Troy Mills, Iowa
Current Conditions -  °F | °C
As of 6:35 PM on Sunday 25 Jan 2015 (Local Time) from KIIB Reporting Station
Broken Clouds Broken Clouds  
Wind Chill: 25°   Ceiling: 2700
Heat Index: 25°   Visibility: 10mi
Dew Point: 21°   Wind: 0mph
Humidity: 86%   Direction: NA
Pressure: 30.02"   Gusts: NA
Location:  42.29°N, 91.68°W
Report Text: KIIB 260035Z AUTO 00000KT 10SM BKN027 M04/M06 A3002 RMK AO2
Loading
Personal Weather Stations






























Interactive Weather Map New forecast layout! Learn more

10-Day Weather Forecast

Advertisements
Track Severe Weather on mobile